createdAt,value
2018-07-10T00:02:49.179Z,18.10
2018-07-10T00:06:01.912Z,17.90
2018-07-10T00:09:47.036Z,17.90
2018-07-10T00:12:15.552Z,17.90
2018-07-10T00:14:43.989Z,17.90
2018-07-10T00:17:12.460Z,17.90
2018-07-10T00:19:40.875Z,17.90
2018-07-10T00:22:09.457Z,17.80
2018-07-10T00:24:37.889Z,17.70
2018-07-10T00:27:06.469Z,17.70
2018-07-10T00:29:34.944Z,17.70
2018-07-10T00:32:03.400Z,17.70
2018-07-10T00:34:31.845Z,17.60
2018-07-10T00:37:00.307Z,17.60
2018-07-10T00:39:29.673Z,17.60
2018-07-10T00:41:58.093Z,17.50
2018-07-10T00:44:26.620Z,17.50
2018-07-10T00:49:24.355Z,17.50
2018-07-10T00:51:52.818Z,17.50
2018-07-10T00:54:21.316Z,17.50
2018-07-10T00:56:49.740Z,17.40
2018-07-10T00:59:18.244Z,17.40
2018-07-10T01:01:46.705Z,17.40
2018-07-10T01:04:15.155Z,17.30
2018-07-10T01:06:43.660Z,17.20
2018-07-10T01:09:14.086Z,17.30
2018-07-10T01:11:45.680Z,17.10
2018-07-10T01:14:14.169Z,17.00
2018-07-10T01:16:42.676Z,17.00
2018-07-10T01:19:19.001Z,16.80
2018-07-10T01:21:48.505Z,17.00
2018-07-10T01:24:19.016Z,16.90
2018-07-10T01:26:49.310Z,16.90
2018-07-10T01:29:23.707Z,16.90
2018-07-10T01:36:50.212Z,16.80
2018-07-10T01:39:18.804Z,16.90
2018-07-10T01:41:47.480Z,16.90
2018-07-10T01:44:15.966Z,16.80
2018-07-10T01:46:44.551Z,16.80
2018-07-10T01:49:13.047Z,16.70
2018-07-10T01:51:41.521Z,16.80
2018-07-10T01:54:10.061Z,16.70
2018-07-10T01:56:38.553Z,16.60
2018-07-10T01:59:06.984Z,16.40
2018-07-10T02:01:35.471Z,16.60
2018-07-10T02:04:04.017Z,16.50
2018-07-10T02:06:32.452Z,16.40
2018-07-10T02:09:00.939Z,16.40
2018-07-10T02:11:29.594Z,16.30
2018-07-10T02:13:58.167Z,16.40
2018-07-10T02:16:26.802Z,16.40
2018-07-10T02:18:55.840Z,16.40
2018-07-10T02:21:24.348Z,16.40
2018-07-10T02:23:53.403Z,16.50
2018-07-10T02:26:28.513Z,16.40
2018-07-10T02:28:57.555Z,16.30
2018-07-10T02:31:26.042Z,16.20
2018-07-10T02:33:54.690Z,16.20
2018-07-10T02:36:24.233Z,16.10
2018-07-10T02:38:55.685Z,16.10
2018-07-10T02:41:24.598Z,16.10
2018-07-10T02:43:58.002Z,16.00
2018-07-10T02:46:27.580Z,16.00
2018-07-10T02:51:24.658Z,16.00
2018-07-10T02:53:53.151Z,15.90
2018-07-10T02:56:22.476Z,15.80
2018-07-10T02:58:51.390Z,15.90
2018-07-10T03:01:20.264Z,15.80
2018-07-10T03:03:49.143Z,15.80
2018-07-10T03:06:17.750Z,15.80
2018-07-10T03:08:46.824Z,15.80
2018-07-10T03:11:15.327Z,15.70
2018-07-10T03:13:43.787Z,15.60
2018-07-10T03:16:12.711Z,15.50
2018-07-10T03:18:41.368Z,15.60
2018-07-10T03:21:10.151Z,15.60
2018-07-10T03:23:38.700Z,15.60
2018-07-10T03:26:07.182Z,15.50
2018-07-10T03:28:35.680Z,15.50
2018-07-10T03:31:04.281Z,15.50
2018-07-10T03:33:32.853Z,15.30
2018-07-10T03:36:01.325Z,15.30
2018-07-10T03:38:29.800Z,15.40
2018-07-10T03:40:58.321Z,15.40
2018-07-10T03:43:27.597Z,15.30
2018-07-10T03:45:56.512Z,15.30
2018-07-10T03:48:26.091Z,15.30
2018-07-10T03:50:55.263Z,15.20
2018-07-10T03:53:24.185Z,15.20
2018-07-10T03:55:52.713Z,15.30
2018-07-10T03:58:21.326Z,15.30
2018-07-10T04:00:49.976Z,15.20
2018-07-10T04:03:20.616Z,15.00
2018-07-10T04:05:50.512Z,15.00
2018-07-10T04:08:18.980Z,15.00
2018-07-10T04:10:47.517Z,15.00
2018-07-10T04:13:19.328Z,14.90
2018-07-10T04:18:20.954Z,14.90
2018-07-10T04:20:56.195Z,15.00
2018-07-10T04:23:29.987Z,15.00
2018-07-10T04:25:58.870Z,14.90
2018-07-10T04:28:31.828Z,15.00
2018-07-10T04:31:28.747Z,14.80
2018-07-10T04:33:57.438Z,14.90
2018-07-10T04:36:25.970Z,14.80
2018-07-10T04:38:56.560Z,14.90
2018-07-10T04:41:29.541Z,15.00
2018-07-10T04:46:31.799Z,15.00
2018-07-10T04:49:05.306Z,15.00
2018-07-10T04:51:37.875Z,15.20
2018-07-10T04:54:17.820Z,15.10
2018-07-10T04:56:52.615Z,15.10
2018-07-10T04:59:21.141Z,15.10
2018-07-10T05:01:49.628Z,15.10
2018-07-10T05:04:18.331Z,15.20
2018-07-10T05:06:46.793Z,15.20
2018-07-10T05:09:15.364Z,15.30
2018-07-10T05:11:44.573Z,15.10
2018-07-10T05:14:13.058Z,15.10
2018-07-10T05:16:41.790Z,15.30
2018-07-10T05:19:10.303Z,15.40
2018-07-10T05:21:40.052Z,15.50
2018-07-10T05:24:08.632Z,15.40
2018-07-10T05:26:37.118Z,15.50
2018-07-10T05:29:05.795Z,15.70
2018-07-10T05:31:36.373Z,15.60
2018-07-10T05:34:05.016Z,15.50
2018-07-10T05:36:34.136Z,15.40
2018-07-10T05:39:08.281Z,15.50
2018-07-10T05:41:43.624Z,15.60
2018-07-10T05:44:16.413Z,15.50
2018-07-10T05:46:44.927Z,15.60
2018-07-10T05:49:13.488Z,15.50
2018-07-10T05:51:47.754Z,15.70
2018-07-10T05:54:16.420Z,15.80
2018-07-10T05:56:44.979Z,15.70
2018-07-10T05:59:13.512Z,15.70
2018-07-10T06:01:43.104Z,15.60
2018-07-10T06:04:12.767Z,15.70
2018-07-10T06:06:41.341Z,15.80
2018-07-10T06:09:09.857Z,15.80
2018-07-10T06:11:38.517Z,15.80
2018-07-10T06:14:07.145Z,15.90
2018-07-10T06:16:38.092Z,15.90
2018-07-10T06:19:06.568Z,15.90
2018-07-10T06:21:40.571Z,16.20
2018-07-10T06:24:12.077Z,16.60
2018-07-10T06:26:42.206Z,17.90
2018-07-10T06:29:12.137Z,18.80
2018-07-10T06:31:55.637Z,19.70
2018-07-10T06:34:34.930Z,20.90
2018-07-10T06:37:07.531Z,21.50
2018-07-10T06:39:36.337Z,21.40
2018-07-10T06:42:15.195Z,22.30
2018-07-10T06:44:50.389Z,22.70
2018-07-10T06:47:27.617Z,22.30
2018-07-10T06:49:56.159Z,21.80
2018-07-10T06:52:24.874Z,22.70
2018-07-10T06:55:08.747Z,22.90
2018-07-10T06:57:48.747Z,23.80
2018-07-10T07:00:17.220Z,23.80
2018-07-10T07:02:45.689Z,22.70
2018-07-10T07:05:14.191Z,20.90
2018-07-10T07:07:42.825Z,19.70
2018-07-10T07:10:13.485Z,19.00
2018-07-10T07:12:42.900Z,18.00
2018-07-10T07:15:13.541Z,17.60
2018-07-10T07:17:43.868Z,17.60
2018-07-10T07:20:12.460Z,17.60
2018-07-10T07:22:41.033Z,17.40
2018-07-10T07:25:09.480Z,17.30
2018-07-10T07:27:38.013Z,17.30
2018-07-10T07:30:06.459Z,17.50
2018-07-10T07:32:35.103Z,18.60
2018-07-10T07:35:03.626Z,19.00
2018-07-10T07:37:34.117Z,19.20
2018-07-10T07:40:02.697Z,18.80
2018-07-10T07:42:31.217Z,18.20
2018-07-10T07:44:59.701Z,17.70
2018-07-10T07:47:29.715Z,17.50
2018-07-10T07:49:58.375Z,17.50
2018-07-10T07:52:28.979Z,17.30
2018-07-10T07:54:58.033Z,17.30
2018-07-10T07:57:26.937Z,17.70
2018-07-10T08:02:24.228Z,17.90
2018-07-10T08:04:53.466Z,18.30
2018-07-10T08:07:23.104Z,19.60
2018-07-10T08:09:53.584Z,20.20
2018-07-10T08:12:22.379Z,20.10
2018-07-10T08:14:51.101Z,19.60
2018-07-10T08:17:19.576Z,19.40
2018-07-10T08:22:16.369Z,20.10
2018-07-10T08:24:44.959Z,20.50
2018-07-10T08:27:13.462Z,20.10
2018-07-10T08:29:42.718Z,18.80
2018-07-10T08:32:11.227Z,18.70
2018-07-10T08:34:39.754Z,18.30
2018-07-10T08:37:08.389Z,18.20
2018-07-10T08:39:36.862Z,18.40
2018-07-10T08:42:05.967Z,18.50
2018-07-10T08:44:34.545Z,18.50
2018-07-10T08:47:03.704Z,18.50
2018-07-10T08:49:35.013Z,18.60
2018-07-10T08:52:03.564Z,18.50
2018-07-10T08:54:32.032Z,18.60
2018-07-10T08:57:01.656Z,19.10
2018-07-10T08:59:30.555Z,19.80
2018-07-10T09:01:59.095Z,20.90
2018-07-10T09:04:27.771Z,21.60
2018-07-10T09:06:56.384Z,21.30
2018-07-10T09:09:24.816Z,21.30
2018-07-10T09:11:53.270Z,20.50
2018-07-10T09:14:21.733Z,20.10
2018-07-10T09:16:50.628Z,19.70
2018-07-10T09:19:29.633Z,19.50
2018-07-10T09:22:05.022Z,19.80
2018-07-10T09:24:35.332Z,19.70
2018-07-10T09:27:06.536Z,19.50
2018-07-10T09:29:35.018Z,19.80
2018-07-10T09:32:03.549Z,20.10
2018-07-10T09:34:32.049Z,20.20
2018-07-10T09:37:00.825Z,20.40
2018-07-10T09:39:29.344Z,20.60
2018-07-10T09:41:58.742Z,19.90
2018-07-10T09:44:27.332Z,19.90
2018-07-10T09:46:55.937Z,19.90
2018-07-10T09:49:24.364Z,19.00
2018-07-10T09:51:52.954Z,18.90
2018-07-10T09:54:21.481Z,18.80
2018-07-10T09:56:50.072Z,19.20
2018-07-10T09:59:18.579Z,19.30
2018-07-10T10:01:47.479Z,19.80
2018-07-10T10:04:15.952Z,19.50
2018-07-10T10:06:44.463Z,19.60
2018-07-10T10:09:13.072Z,19.30
2018-07-10T10:11:41.537Z,18.90
2018-07-10T10:14:10.185Z,18.80
2018-07-10T10:16:38.718Z,18.80
2018-07-10T10:19:07.251Z,19.10
2018-07-10T10:21:35.786Z,18.90
2018-07-10T10:24:04.255Z,19.10
2018-07-10T10:26:32.824Z,19.00
2018-07-10T10:29:01.353Z,19.00
2018-07-10T10:33:58.213Z,18.80
2018-07-10T10:36:26.724Z,18.90
2018-07-10T10:38:55.188Z,19.20
2018-07-10T10:41:23.667Z,19.60
2018-07-10T10:43:52.198Z,19.50
2018-07-10T10:46:22.464Z,19.30
2018-07-10T10:48:52.387Z,19.30
2018-07-10T10:51:22.028Z,19.40
2018-07-10T10:53:50.841Z,19.20
2018-07-10T10:56:19.717Z,19.30
2018-07-10T10:58:48.687Z,19.40
2018-07-10T11:01:17.311Z,19.70
2018-07-10T11:03:45.984Z,19.60
2018-07-10T11:06:14.508Z,19.30
2018-07-10T11:08:43.051Z,19.20
2018-07-10T11:11:11.879Z,19.10
2018-07-10T11:13:41.587Z,19.20
2018-07-10T11:16:10.145Z,19.20
2018-07-10T11:18:47.230Z,19.40
2018-07-10T11:21:24.565Z,19.50
2018-07-10T11:23:57.068Z,19.60
2018-07-10T11:26:32.201Z,19.50
2018-07-10T11:29:01.609Z,19.70
2018-07-10T11:31:30.441Z,19.20
2018-07-10T11:33:59.148Z,19.30
2018-07-10T11:36:28.000Z,19.50
2018-07-10T11:38:59.927Z,19.30
2018-07-10T11:41:29.441Z,19.40
2018-07-10T11:43:58.968Z,19.50
2018-07-10T11:46:27.437Z,19.50
2018-07-10T11:48:55.943Z,19.60
2018-07-10T11:51:24.543Z,19.40
2018-07-10T11:53:52.997Z,18.90
2018-07-10T11:56:21.558Z,18.90
2018-07-10T11:58:50.029Z,19.20
2018-07-10T12:01:18.575Z,19.40
2018-07-10T12:03:47.657Z,19.70
2018-07-10T12:06:16.122Z,19.80
2018-07-10T12:08:52.327Z,20.20
2018-07-10T12:13:49.333Z,20.80
2018-07-10T12:16:17.937Z,20.80
2018-07-10T12:21:17.164Z,20.10
2018-07-10T12:23:45.834Z,19.70
2018-07-10T12:26:15.318Z,19.30
2018-07-10T12:28:43.940Z,19.30
2018-07-10T12:31:14.032Z,19.40
2018-07-10T12:33:42.558Z,19.50
2018-07-10T12:36:11.152Z,19.80
2018-07-10T12:38:39.873Z,19.90
2018-07-10T12:41:08.437Z,19.60
2018-07-10T12:43:37.013Z,19.30
2018-07-10T12:46:05.602Z,19.20
2018-07-10T12:48:34.124Z,19.40
2018-07-10T12:51:03.195Z,19.50
2018-07-10T12:53:31.687Z,19.40
2018-07-10T12:56:00.928Z,19.30
2018-07-10T12:58:32.356Z,19.30
2018-07-10T13:01:00.894Z,19.30
2018-07-10T13:03:29.441Z,19.00
2018-07-10T13:05:58.590Z,18.90
2018-07-10T13:08:27.185Z,19.00
2018-07-10T13:10:55.685Z,18.90
2018-07-10T13:13:24.352Z,18.70
2018-07-10T13:15:52.888Z,18.80
2018-07-10T13:18:25.430Z,18.70
2018-07-10T13:20:53.888Z,18.50
2018-07-10T13:23:22.465Z,18.60
2018-07-10T13:25:51.103Z,18.40
2018-07-10T13:28:19.799Z,18.40
2018-07-10T13:30:48.371Z,18.30
2018-07-10T13:33:16.974Z,18.30
2018-07-10T13:35:45.541Z,18.10
2018-07-10T13:38:17.341Z,17.90
2018-07-10T13:40:45.895Z,17.80
2018-07-10T13:43:14.457Z,17.80
2018-07-10T13:48:11.146Z,17.90
2018-07-10T13:50:39.625Z,18.10
2018-07-10T13:53:08.143Z,18.20
2018-07-10T13:58:15.988Z,18.50
2018-07-10T14:00:47.469Z,18.70
2018-07-10T14:03:16.057Z,18.80
2018-07-10T14:05:44.612Z,18.70
2018-07-10T14:08:13.271Z,19.00
2018-07-10T14:10:41.765Z,19.00
2018-07-10T14:13:10.213Z,18.90
2018-07-10T14:15:38.781Z,18.90
2018-07-10T14:18:07.524Z,19.00
2018-07-10T14:20:46.126Z,19.10
2018-07-10T14:23:14.805Z,19.20
2018-07-10T14:25:43.313Z,19.30
2018-07-10T14:28:12.480Z,19.40
2018-07-10T14:30:40.950Z,19.40
2018-07-10T14:33:09.620Z,19.50
2018-07-10T14:35:38.208Z,19.50
2018-07-10T14:38:08.134Z,19.50
2018-07-10T14:40:39.894Z,19.40
2018-07-10T14:43:08.476Z,19.40
2018-07-10T14:45:37.838Z,19.50
2018-07-10T14:48:07.079Z,19.60
2018-07-10T14:50:36.083Z,19.60
2018-07-10T14:53:05.678Z,19.70
2018-07-10T14:55:34.626Z,19.80
2018-07-10T14:58:03.430Z,19.90
2018-07-10T15:00:32.061Z,19.90
2018-07-10T15:03:01.042Z,20.20
2018-07-10T15:05:29.551Z,20.40
2018-07-10T15:07:58.188Z,20.30
2018-07-10T15:10:26.723Z,20.20
2018-07-10T15:12:55.264Z,20.00
2018-07-10T15:15:23.776Z,19.90
2018-07-10T15:20:26.165Z,20.20
2018-07-10T15:22:54.754Z,20.40
2018-07-10T15:25:23.302Z,20.40
2018-07-10T15:27:51.803Z,20.10
2018-07-10T15:30:20.341Z,19.80
2018-07-10T15:35:16.935Z,19.40
2018-07-10T15:37:45.480Z,19.30
2018-07-10T15:40:14.004Z,19.20
2018-07-10T15:42:42.487Z,19.20
2018-07-10T15:45:11.331Z,19.20
2018-07-10T15:47:39.909Z,19.30
2018-07-10T15:50:08.507Z,19.40
2018-07-10T15:52:37.021Z,19.40
2018-07-10T15:55:05.814Z,19.40
2018-07-10T15:57:34.420Z,19.30
2018-07-10T16:00:02.996Z,19.10
2018-07-10T16:02:31.529Z,18.80
2018-07-10T16:05:00.010Z,18.30
2018-07-10T16:07:28.538Z,18.00
2018-07-10T16:09:57.199Z,18.10
2018-07-10T16:12:25.846Z,18.00
2018-07-10T16:14:54.370Z,18.20
2018-07-10T16:17:25.444Z,18.20
2018-07-10T16:20:04.626Z,18.20
2018-07-10T16:22:34.890Z,18.10
2018-07-10T16:25:10.610Z,18.10
2018-07-10T16:27:41.960Z,17.70
2018-07-10T16:30:11.896Z,17.40
2018-07-10T16:32:42.246Z,17.50
2018-07-10T16:35:11.626Z,17.40
2018-07-10T16:37:40.360Z,17.40
2018-07-10T16:40:09.328Z,17.50
2018-07-10T16:42:43.234Z,17.40
2018-07-10T16:45:18.786Z,17.40
2018-07-10T16:47:53.698Z,17.40
2018-07-10T16:50:24.756Z,17.40
2018-07-10T16:52:56.687Z,17.40
2018-07-10T16:55:27.452Z,17.40
2018-07-10T16:57:56.320Z,17.50
2018-07-10T17:00:25.461Z,17.60
2018-07-10T17:02:54.709Z,17.80
2018-07-10T17:05:24.285Z,17.80
2018-07-10T17:07:52.949Z,17.70
2018-07-10T17:10:21.534Z,17.60
2018-07-10T17:12:50.219Z,17.60
2018-07-10T17:15:18.820Z,17.50
2018-07-10T17:17:47.326Z,17.40
2018-07-10T17:20:16.689Z,17.40
2018-07-10T17:22:46.374Z,17.30
2018-07-10T17:25:15.464Z,17.30
2018-07-10T17:27:47.832Z,17.20
2018-07-10T17:30:16.334Z,17.20
2018-07-10T17:32:44.816Z,17.20
2018-07-10T17:35:13.343Z,17.30
2018-07-10T17:37:46.257Z,17.40
2018-07-10T17:40:15.513Z,17.40
2018-07-10T17:42:44.316Z,17.50
2018-07-10T17:45:16.848Z,17.50
2018-07-10T17:47:45.523Z,17.60
2018-07-10T17:50:14.051Z,17.70
2018-07-10T17:52:42.548Z,17.70
2018-07-10T17:55:11.080Z,17.70
2018-07-10T17:57:41.990Z,17.60
2018-07-10T18:00:11.161Z,17.50
2018-07-10T18:02:39.638Z,17.40
2018-07-10T18:05:08.402Z,17.40
2018-07-10T18:07:36.938Z,17.40
2018-07-10T18:10:05.618Z,17.50
2018-07-10T18:12:34.131Z,17.50
2018-07-10T18:15:02.634Z,17.60
2018-07-10T18:17:31.190Z,17.60
2018-07-10T18:19:59.782Z,17.60
2018-07-10T18:22:28.298Z,17.70
2018-07-10T18:24:56.867Z,17.60
2018-07-10T18:27:25.549Z,17.50
2018-07-10T18:29:54.045Z,17.50
2018-07-10T18:34:50.840Z,17.50
2018-07-10T18:37:19.402Z,17.50
2018-07-10T18:39:47.931Z,17.50
2018-07-10T18:42:16.808Z,17.50
2018-07-10T18:44:45.313Z,17.50
2018-07-10T18:47:14.473Z,17.50
2018-07-10T18:49:43.027Z,17.40
2018-07-10T18:52:11.728Z,17.50
2018-07-10T18:54:40.693Z,17.50
2018-07-10T18:59:43.579Z,17.50
2018-07-10T19:02:16.704Z,17.50
2018-07-10T19:04:55.183Z,17.50
2018-07-10T19:07:23.703Z,17.30
2018-07-10T19:09:52.426Z,17.30
2018-07-10T19:12:21.246Z,17.30
2018-07-10T19:14:49.750Z,17.30
2018-07-10T19:17:24.025Z,17.30
2018-07-10T19:20:11.443Z,17.30
2018-07-10T19:23:00.253Z,17.30
2018-07-10T19:25:28.830Z,17.30
2018-07-10T19:27:59.480Z,17.20
2018-07-10T19:30:56.413Z,17.20
2018-07-10T19:33:24.964Z,17.20
2018-07-10T19:38:21.644Z,17.20
2018-07-10T19:40:50.363Z,17.20
2018-07-10T19:43:18.975Z,17.20
2018-07-10T19:45:47.513Z,17.20
2018-07-10T19:48:16.724Z,17.20
2018-07-10T19:50:45.272Z,17.20
2018-07-10T19:53:13.983Z,17.20
2018-07-10T19:55:44.384Z,17.20
2018-07-10T20:00:47.005Z,17.20
2018-07-10T20:04:06.700Z,17.20
2018-07-10T20:06:40.186Z,17.10
2018-07-10T20:09:12.661Z,17.10
2018-07-10T20:12:00.989Z,17.00
2018-07-10T20:14:33.741Z,16.90
2018-07-10T20:17:08.284Z,16.90
2018-07-10T20:19:43.788Z,16.90
2018-07-10T20:22:15.049Z,16.90
2018-07-10T20:24:52.702Z,16.80
2018-07-10T20:27:35.032Z,16.80
2018-07-10T20:30:16.992Z,16.70
2018-07-10T20:32:58.440Z,16.60
2018-07-10T20:35:30.757Z,16.60
2018-07-10T20:37:59.513Z,16.50
2018-07-10T20:40:35.926Z,16.50
2018-07-10T20:43:07.635Z,16.50
2018-07-10T20:45:46.051Z,16.60
2018-07-10T20:48:30.124Z,16.70
2018-07-10T20:51:06.101Z,16.70
2018-07-10T20:53:40.761Z,16.70
2018-07-10T20:57:18.111Z,16.70
2018-07-10T20:59:47.099Z,16.80
2018-07-10T21:04:30.292Z,16.80
2018-07-10T21:07:02.232Z,16.80
2018-07-10T21:09:54.488Z,17.00
2018-07-10T21:12:34.104Z,17.10
2018-07-10T21:15:08.929Z,17.10
2018-07-10T21:19:19.912Z,17.20
2018-07-10T21:22:03.620Z,17.30
2018-07-10T21:24:45.134Z,17.30
2018-07-10T21:27:21.328Z,17.20
2018-07-10T21:32:56.601Z,17.30
2018-07-10T21:35:29.142Z,17.30
2018-07-10T21:38:08.902Z,17.30
2018-07-10T21:40:48.180Z,17.30
2018-07-10T21:44:03.013Z,17.30
2018-07-10T21:47:11.529Z,17.30
2018-07-10T21:52:16.447Z,17.30
2018-07-10T21:57:14.989Z,17.10
2018-07-10T21:59:49.816Z,17.00
2018-07-10T22:02:18.371Z,16.90
2018-07-10T22:04:47.454Z,16.90
2018-07-10T22:07:16.551Z,16.80
2018-07-10T22:09:45.319Z,16.70
2018-07-10T22:12:16.946Z,16.70
2018-07-10T22:14:45.761Z,16.60
2018-07-10T22:17:18.245Z,16.60
2018-07-10T22:19:48.665Z,16.50
2018-07-10T22:22:20.224Z,16.40
2018-07-10T22:24:50.026Z,16.40
2018-07-10T22:27:18.980Z,16.30
2018-07-10T22:29:53.301Z,16.30
2018-07-10T22:32:27.945Z,16.20
2018-07-10T22:34:56.421Z,16.30
2018-07-10T22:37:24.861Z,16.30
2018-07-10T22:39:53.389Z,16.30
2018-07-10T22:42:21.896Z,16.30
2018-07-10T22:44:52.132Z,16.20
2018-07-10T22:47:32.176Z,16.20
2018-07-10T22:52:31.812Z,16.10
2018-07-10T22:55:00.312Z,16.10
2018-07-10T22:57:28.779Z,16.00
2018-07-10T22:59:58.256Z,15.90
2018-07-10T23:02:26.806Z,15.80
2018-07-10T23:04:55.308Z,15.70
2018-07-10T23:07:23.806Z,15.60
2018-07-10T23:09:52.273Z,15.50
2018-07-10T23:12:20.844Z,15.40
2018-07-10T23:14:49.406Z,15.40
2018-07-10T23:17:17.865Z,15.30
2018-07-10T23:19:46.378Z,15.20
2018-07-10T23:22:15.758Z,15.10
2018-07-10T23:24:44.228Z,15.10
2018-07-10T23:27:12.720Z,15.20
2018-07-10T23:29:41.268Z,15.20
2018-07-10T23:32:10.029Z,15.20
2018-07-10T23:37:12.582Z,15.30
2018-07-10T23:39:50.709Z,15.20
2018-07-10T23:42:25.971Z,15.20
2018-07-10T23:44:54.505Z,15.20
2018-07-10T23:47:32.732Z,15.20
2018-07-10T23:50:10.648Z,15.20
2018-07-10T23:53:48.563Z,15.10
2018-07-10T23:56:17.674Z,15.00
2018-07-10T23:58:46.726Z,14.90
